Time;durP1;ratioP1;P1;durP2;ratioP2;P2;SDS_P1;SDS_P2;PMS_P1;PMS_P2;Temp;Humidity;BMP_temperature;BMP_pressure;BME280_temperature;BME280_humidity;BME280_pressure;Samples;Min_cycle;Max_cycle;Signal;HPM_P1;HPM_P2
2021/11/19 00:02:23;;;;;;;16.17;7.85;;;14.50;99.90;;;14.74;86.36;102731.53;5054619;28;20128;-67
2021/11/19 00:04:51;;;;;;;13.63;7.72;;;14.50;99.90;;;14.82;86.05;102729.81;5054955;28;20052;-67
2021/11/19 00:07:19;;;;;;;16.83;7.65;;;14.60;99.90;;;14.84;86.20;102737.81;5054792;28;20041;-67
2021/11/19 00:09:48;;;;;;;13.32;7.97;;;14.50;99.90;;;14.92;86.14;102749.44;5054861;28;20045;-68
2021/11/19 00:12:16;;;;;;;15.02;8.10;;;14.50;99.90;;;14.86;86.18;102752.94;5054494;28;20548;-68
2021/11/19 00:14:45;;;;;;;13.30;7.50;;;14.50;99.90;;;14.70;86.23;102735.03;5054769;28;20044;-68
2021/11/19 00:17:13;;;;;;;16.30;8.45;;;14.50;99.90;;;14.87;86.31;102741.41;5054674;28;20493;-68
2021/11/19 00:19:45;;;;;;;15.10;7.70;;;14.50;99.90;;;14.82;86.56;102734.25;5054580;28;20053;-68
2021/11/19 00:22:18;;;;;;;15.25;8.10;;;14.50;99.90;;;14.81;86.69;102740.44;5053311;28;20045;-69
2021/11/19 00:24:46;;;;;;;20.98;8.30;;;14.50;99.90;;;14.84;86.81;102744.03;5054600;28;20044;-68
2021/11/19 00:27:19;;;;;;;16.73;8.70;;;14.50;99.90;;;14.87;86.81;102768.03;5069946;28;20103;-68
2021/11/19 00:29:48;;;;;;;17.75;8.23;;;14.50;99.90;;;14.95;86.60;102766.34;5053278;28;20053;-68
2021/11/19 00:32:16;;;;;;;15.93;8.40;;;14.60;99.90;;;14.99;86.33;102765.47;5054703;28;20079;-69
2021/11/19 00:34:48;;;;;;;16.52;8.80;;;14.60;99.90;;;14.99;86.21;102756.59;5054338;28;20041;-69
2021/11/19 00:37:18;;;;;;;14.18;7.72;;;14.60;99.90;;;14.96;86.21;102760.09;5054408;28;20040;-69
2021/11/19 00:39:46;;;;;;;14.65;8.18;;;14.60;99.90;;;14.96;86.17;102759.25;5054209;28;20041;-68
2021/11/19 00:42:15;;;;;;;17.40;9.13;;;14.60;99.90;;;14.99;86.29;102762.81;5052483;28;20041;-68
2021/11/19 00:44:44;;;;;;;15.60;8.88;;;14.60;99.90;;;15.02;85.77;102754.84;5053880;28;20049;-68
2021/11/19 00:47:12;;;;;;;18.85;9.60;;;14.70;99.90;;;15.09;85.87;102769.09;5054088;28;20072;-69
2021/11/19 00:49:42;;;;;;;20.20;8.82;;;14.70;99.90;;;14.93;85.37;102728.13;5054084;28;20045;-69
2021/11/19 00:52:15;;;;;;;14.45;8.95;;;14.80;99.90;;;15.16;85.37;102760.25;5054028;28;20091;-68
2021/11/19 00:54:45;;;;;;;12.95;8.23;;;14.80;99.90;;;15.21;85.24;102756.75;5054011;28;20127;-69
2021/11/19 00:57:18;;;;;;;19.45;8.00;;;14.80;99.90;;;15.16;85.06;102749.59;5052598;28;20044;-69
2021/11/19 00:59:48;;;;;;;17.40;8.10;;;14.80;99.90;;;15.11;85.41;102754.03;5068825;28;20049;-68
2021/11/19 01:02:22;;;;;;;13.30;8.45;;;14.80;99.90;;;15.15;85.28;102747.84;5069264;28;20048;-69
2021/11/19 01:04:52;;;;;;;14.25;8.40;;;14.80;99.90;;;15.18;85.31;102755.84;5069311;28;20053;-69
2021/11/19 01:07:23;;;;;;;14.57;8.68;;;14.80;99.90;;;15.24;85.10;102756.78;5069198;28;20052;-68
2021/11/19 01:09:57;;;;;;;15.07;8.60;;;14.90;99.90;;;14.64;84.90;102649.75;5052139;28;20094;-69
2021/11/19 01:12:31;;;;;;;21.42;9.38;;;14.90;99.90;;;15.30;84.80;102751.50;5069081;28;20060;-69
2021/11/19 01:15:07;;;;;;;16.80;8.32;;;14.90;99.90;;;15.29;84.94;102755.03;5053432;28;20037;-68
2021/11/19 01:17:41;;;;;;;18.15;8.93;;;14.90;99.90;;;15.22;84.86;102747.88;5052386;28;20095;-68
2021/11/19 01:20:14;;;;;;;15.65;8.70;;;14.90;99.90;;;15.25;84.98;102747.88;5068858;28;20060;-69
2021/11/19 01:22:50;;;;;;;19.23;8.30;;;14.90;99.90;;;15.29;85.00;102754.16;5052419;28;20044;-68
2021/11/19 01:25:23;;;;;;;16.13;9.05;;;14.90;99.90;;;15.31;84.71;102750.59;5052308;28;20483;-69
2021/11/19 01:27:52;;;;;;;18.70;9.10;;;15.00;99.90;;;15.08;85.05;102725.56;5069147;28;20048;-68
2021/11/19 01:30:33;;;;;;;13.43;7.97;;;14.90;99.90;;;15.25;85.14;102744.34;5053401;28;20095;-69
2021/11/19 01:33:05;;;;;;;11.65;8.30;;;14.90;99.90;;;15.27;85.06;102743.44;5053416;28;20128;-68
2021/11/19 01:35:48;;;;;;;12.05;8.10;;;14.90;99.90;;;15.27;84.97;102748.78;5052068;28;20145;-68
2021/11/19 01:38:40;;;;;;;13.45;8.13;;;14.90;99.90;;;15.33;84.69;102747.94;5053336;28;20136;-68
2021/11/19 01:41:26;;;;;;;18.08;8.90;;;15.00;99.90;;;15.30;84.63;102743.50;5068715;28;20055;-68
2021/11/19 01:43:56;;;;;;;15.93;8.77;;;14.90;99.90;;;15.09;84.84;102714.03;5068629;28;20041;-68
2021/11/19 01:46:31;;;;;;;17.60;9.15;;;14.90;99.90;;;15.28;84.54;102744.34;5051551;28;20132;-69
2021/11/19 01:49:02;;;;;;;17.10;8.70;;;14.90;99.90;;;15.26;84.45;102747.03;5068402;28;20479;-68
2021/11/19 01:51:35;;;;;;;15.13;8.70;;;14.90;99.90;;;15.32;84.49;102747.06;5068572;28;20139;-70
2021/11/19 01:54:09;;;;;;;15.63;9.27;;;14.90;99.90;;;15.33;84.39;102751.50;5053175;28;20049;-68
2021/11/19 01:56:45;;;;;;;14.02;8.60;;;15.00;99.90;;;15.28;84.29;102745.25;5068619;28;20049;-68
2021/11/19 01:59:18;;;;;;;13.73;8.63;;;15.00;99.90;;;15.16;84.68;102737.16;5068525;28;20053;-69
2021/11/19 02:01:52;;;;;;;17.27;8.68;;;14.90;99.90;;;15.15;84.83;102730.06;5051837;28;20045;-69
2021/11/19 02:04:33;;;;;;;17.20;8.73;;;14.90;99.90;;;15.22;85.56;102738.97;5068399;28;20056;-68
2021/11/19 02:07:10;;;;;;;17.80;8.55;;;14.90;99.90;;;15.20;86.06;102738.97;5051838;28;20111;-69
2021/11/19 02:10:15;;;;;;;17.50;8.15;;;14.90;99.90;;;14.32;86.98;102614.88;5050865;28;20057;-68
2021/11/19 02:12:59;;;;;;;19.27;8.98;;;14.80;99.90;;;14.95;87.88;102736.13;5055795;28;20509;-69
2021/11/19 02:15:34;;;;;;;17.48;8.18;;;14.70;99.90;;;15.03;88.23;102745.97;5072412;28;20103;-69
2021/11/19 02:18:10;;;;;;;14.75;8.00;;;14.70;99.90;;;15.13;88.11;102744.25;5056965;28;20120;-69
2021/11/19 02:20:42;;;;;;;17.67;8.55;;;14.70;99.90;;;15.15;88.08;102740.72;5072326;28;20384;-68
2021/11/19 02:23:19;;;;;;;18.85;7.90;;;14.80;99.90;;;15.17;87.96;102743.41;5055459;28;20099;-69
2021/11/19 02:25:54;;;;;;;17.75;8.82;;;14.80;99.90;;;15.10;87.80;102720.22;5056852;28;20041;-69
2021/11/19 02:28:28;;;;;;;16.08;8.57;;;14.90;99.90;;;15.28;87.53;102742.59;5072189;28;20045;-69
2021/11/19 02:31:00;;;;;;;17.52;8.98;;;14.90;99.90;;;15.22;87.88;102726.56;5072104;28;20491;-69
2021/11/19 02:33:31;;;;;;;18.10;9.30;;;14.90;99.90;;;14.64;88.02;102633.75;5071854;28;20131;-68
2021/11/19 02:36:04;;;;;;;21.50;8.90;;;14.90;99.90;;;15.23;88.00;102733.66;5056356;28;20060;-69
2021/11/19 02:38:41;;;;;;;24.50;9.77;;;14.90;99.90;;;15.25;87.85;102731.88;5072235;28;20083;-69
2021/11/19 02:41:14;;;;;;;17.88;9.50;;;14.90;99.90;;;15.18;88.33;102723.84;5056530;28;20045;-69
2021/11/19 02:43:46;;;;;;;21.75;10.15;;;14.90;99.90;;;15.13;88.57;102715.84;5055166;28;20049;-69
2021/11/19 02:46:21;;;;;;;15.85;9.45;;;14.90;99.90;;;15.20;88.35;102706.97;5056548;28;20060;-69
2021/11/19 02:48:50;;;;;;;23.63;9.73;;;14.90;99.90;;;15.30;88.06;102713.25;5055166;28;20132;-68
2021/11/19 02:51:23;;;;;;;17.80;9.35;;;15.00;99.90;;;15.15;88.48;102700.75;5071681;28;20115;-68
2021/11/19 02:53:53;;;;;;;22.63;9.90;;;14.90;99.90;;;15.15;88.38;102692.75;5055109;28;20409;-68
2021/11/19 02:56:24;;;;;;;25.17;10.80;;;14.90;99.90;;;15.23;88.69;102714.97;5055033;28;20414;-68
2021/11/19 02:58:57;;;;;;;20.65;10.90;;;14.90;99.90;;;15.29;88.38;102717.69;5054937;28;20067;-68
2021/11/19 03:01:29;;;;;;;25.30;9.85;;;15.00;99.90;;;15.34;88.36;102715.97;5056236;28;20047;-68
2021/11/19 03:04:12;;;;;;;23.83;9.75;;;15.00;99.90;;;15.33;88.42;102727.50;5054774;28;20041;-68
2021/11/19 03:06:46;;;;;;;22.52;11.13;;;15.00;99.90;;;15.33;88.50;102723.94;5056138;28;20045;-69
2021/11/19 03:09:19;;;;;;;20.95;10.85;;;15.00;99.90;;;15.30;88.35;102715.94;5054752;28;20045;-69
2021/11/19 03:11:50;;;;;;;23.20;10.45;;;15.00;99.90;;;15.32;88.60;102719.50;5071443;28;20072;-69
2021/11/19 03:14:22;;;;;;;23.98;11.23;;;15.00;99.90;;;15.35;88.35;102720.41;5054754;28;20053;-69
2021/11/19 03:16:53;;;;;;;26.67;10.73;;;15.00;99.90;;;15.44;88.25;102716.03;5054253;28;20060;-69
2021/11/19 03:19:22;;;;;;;28.73;11.57;;;15.10;99.90;;;15.48;88.20;102715.16;5071303;28;20049;-69
2021/11/19 03:21:53;;;;;;;22.90;12.03;;;15.10;99.90;;;15.09;88.22;102654.50;5070310;28;20056;-68
2021/11/19 03:24:24;;;;;;;20.52;12.45;;;15.10;99.90;;;15.45;88.09;102717.84;5071118;28;20049;-69
2021/11/19 03:26:55;;;;;;;21.77;12.03;;;15.20;99.90;;;15.45;87.81;102709.84;5054492;28;20053;-69
2021/11/19 03:29:26;;;;;;;22.90;12.85;;;15.20;99.90;;;15.48;87.67;102720.50;5055394;28;20479;-69
2021/11/19 03:31:56;;;;;;;24.42;12.88;;;15.20;99.90;;;15.44;87.65;102716.03;5054367;28;20195;-69
2021/11/19 03:34:26;;;;;;;22.80;12.48;;;15.10;99.90;;;15.29;87.60;102696.34;5070882;28;20151;-69
2021/11/19 03:36:56;;;;;;;25.77;13.55;;;15.10;99.90;;;15.03;87.26;102655.34;5055200;28;20053;-69
2021/11/19 03:39:28;;;;;;;26.10;13.77;;;15.20;99.90;;;15.39;87.55;102722.19;5070925;28;20049;-69
2021/11/19 03:42:00;;;;;;;23.73;12.68;;;15.10;99.90;;;13.73;87.31;102431.63;5054160;28;20056;-69
2021/11/19 03:44:45;;;;;;;20.40;12.25;;;15.10;99.90;;;15.38;87.46;102720.44;5054086;28;20509;-68
2021/11/19 03:47:19;;;;;;;23.10;12.30;;;15.10;99.90;;;15.33;87.71;102710.59;5054050;28;20045;-69
2021/11/19 03:49:49;;;;;;;24.25;12.57;;;15.00;99.90;;;15.38;87.36;102709.78;5070414;28;20049;-69
2021/11/19 03:52:24;;;;;;;23.67;12.32;;;15.10;99.90;;;15.45;87.38;102717.84;5054964;28;20049;-69
2021/11/19 03:54:57;;;;;;;21.17;11.65;;;15.20;99.90;;;15.41;87.53;102724.88;5054949;28;20037;-68
2021/11/19 03:57:28;;;;;;;26.60;11.68;;;15.10;99.90;;;15.27;87.74;102721.25;5054907;28;20041;-68
2021/11/19 03:59:57;;;;;;;22.20;11.88;;;15.10;99.90;;;15.15;88.31;102697.19;5054825;28;20398;-69
2021/11/19 04:02:30;;;;;;;23.55;11.75;;;15.00;99.90;;;15.28;88.30;102731.94;5053666;28;20056;-68
2021/11/19 04:04:58;;;;;;;23.83;12.35;;;15.00;99.90;;;15.36;88.17;102730.19;5070382;28;20044;-69
2021/11/19 04:07:27;;;;;;;24.77;11.27;;;15.10;99.90;;;15.30;88.15;102716.81;5053594;28;20037;-69
2021/11/19 04:09:55;;;;;;;22.48;10.20;;;15.10;99.90;;;14.45;88.73;102626.53;5054861;28;20041;-68
2021/11/19 04:12:24;;;;;;;21.05;10.15;;;14.90;99.90;;;15.14;89.16;102730.94;5070215;28;20398;-68
2021/11/19 04:14:54;;;;;;;21.33;10.23;;;14.90;99.90;;;15.08;89.06;102735.31;5053478;28;20063;-69
2021/11/19 04:17:23;;;;;;;17.85;9.85;;;14.80;99.90;;;15.06;89.21;102727.31;5054815;28;20056;-69
2021/11/19 04:19:51;;;;;;;21.30;10.20;;;14.80;99.90;;;15.09;89.05;102732.69;5053429;28;20133;-69
2021/11/19 04:22:21;;;;;;;18.17;10.70;;;14.80;99.90;;;14.50;89.10;102631.88;5054353;28;20040;-69
2021/11/19 04:24:53;;;;;;;21.33;11.05;;;14.80;99.90;;;14.66;89.05;102679.94;5052972;28;20136;-69
2021/11/19 04:27:23;;;;;;;19.13;9.90;;;14.80;99.90;;;14.95;89.52;102741.44;5053269;28;20053;-69
2021/11/19 04:30:13;;;;;;;23.52;10.15;;;14.70;99.90;;;14.94;89.71;102759.22;5053273;28;20041;-69
2021/11/19 04:32:43;;;;;;;20.17;10.50;;;14.70;99.90;;;14.75;90.12;102716.44;5069480;28;20068;-68
2021/11/19 04:35:11;;;;;;;21.08;10.45;;;14.60;99.90;;;14.90;90.10;102737.88;5053812;28;20123;-69
2021/11/19 04:37:40;;;;;;;19.20;10.77;;;14.60;99.90;;;14.89;90.02;102742.28;5069676;28;20045;-69
2021/11/19 04:40:15;;;;;;;25.50;10.73;;;14.60;99.90;;;14.83;89.95;102741.34;5053057;28;20120;-68
2021/11/19 04:42:44;;;;;;;18.63;9.70;;;14.60;99.90;;;14.96;89.99;102738.78;5069662;28;20051;-69
2021/11/19 04:45:20;;;;;;;22.73;10.63;;;14.70;99.90;;;15.04;89.67;102744.22;5052520;28;20087;-68
2021/11/19 04:47:49;;;;;;;18.23;9.85;;;14.70;99.90;;;14.98;90.04;102741.50;5052606;28;20076;-68
2021/11/19 04:50:21;;;;;;;16.00;9.60;;;14.70;99.90;;;14.94;89.79;102739.69;5069459;28;20041;-69
2021/11/19 04:52:50;;;;;;;21.02;9.50;;;14.70;99.90;;;14.91;89.71;102729.88;5054365;28;20072;-69
2021/11/19 04:55:19;;;;;;;20.23;10.30;;;14.70;99.90;;;14.55;89.49;102657.69;5052300;28;20103;-69
2021/11/19 04:57:48;;;;;;;20.63;9.32;;;14.80;99.90;;;15.02;89.67;102740.63;5053996;28;20472;-69
2021/11/19 05:00:23;;;;;;;21.95;9.40;;;14.70;99.90;;;14.64;89.74;102675.47;5053857;28;20044;-69
2021/11/19 05:03:21;;;;;;;22.33;9.40;;;14.70;99.90;;;15.03;89.48;102739.75;5053067;28;20070;-69
2021/11/19 05:05:51;;;;;;;16.52;9.27;;;14.80;99.90;;;15.07;89.48;102733.56;5069139;28;20041;-69
2021/11/19 05:08:21;;;;;;;18.85;9.10;;;14.80;99.90;;;14.90;89.17;102701.47;5069275;28;20067;-69
2021/11/19 05:10:56;;;;;;;17.42;9.57;;;14.90;99.90;;;15.19;88.77;102741.63;5069226;28;20107;-69
2021/11/19 05:13:34;;;;;;;21.00;9.82;;;14.90;99.90;;;14.98;88.63;102747.69;5068809;28;20098;-68
2021/11/19 05:16:11;;;;;;;15.85;8.13;;;14.90;99.90;;;15.08;88.67;102728.22;5052464;28;20458;-69
2021/11/19 05:18:42;;;;;;;19.30;9.18;;;14.90;99.90;;;15.18;88.32;102731.84;5053380;28;20094;-69
2021/11/19 05:21:14;;;;;;;19.65;8.38;;;14.90;99.90;;;14.78;88.22;102658.72;5052341;28;20103;-69
2021/11/19 05:23:43;;;;;;;17.83;8.98;;;14.90;99.90;;;15.15;87.83;102724.75;5068968;28;20099;-69
2021/11/19 05:26:13;;;;;;;20.10;8.48;;;14.90;99.90;;;15.13;87.99;102726.50;5068887;28;20441;-69
2021/11/19 05:28:42;;;;;;;19.55;8.75;;;14.90;99.90;;;15.15;87.65;102724.75;5068888;28;20052;-69
2021/11/19 05:31:14;;;;;;;21.55;8.20;;;14.90;99.90;;;15.01;87.65;102714.84;5068830;28;20132;-69
2021/11/19 05:33:44;;;;;;;17.95;8.90;;;14.90;99.90;;;14.74;87.55;102656.03;5052136;28;20052;-69
2021/11/19 05:36:14;;;;;;;20.08;8.73;;;14.90;99.90;;;15.09;87.73;102734.47;5052105;28;20406;-69
2021/11/19 05:38:44;;;;;;;14.63;8.05;;;14.80;99.90;;;15.13;87.67;102729.16;5069177;28;20068;-69
2021/11/19 05:41:20;;;;;;;20.10;8.35;;;14.80;99.90;;;14.69;87.78;102669.31;5052036;28;20102;-69
2021/11/19 05:43:51;;;;;;;17.98;7.63;;;14.80;99.90;;;15.06;87.84;102722.00;5052011;28;20056;-69
2021/11/19 05:46:42;;;;;;;17.98;8.38;;;14.80;99.90;;;15.00;88.05;102739.72;5053147;28;20051;-68
2021/11/19 05:49:17;;;;;;;18.33;7.88;;;14.70;99.90;;;15.05;87.88;102729.97;5068624;28;20482;-69
2021/11/19 05:51:50;;;;;;;17.38;8.10;;;14.80;99.90;;;15.00;88.23;102740.59;5051952;28;20053;-68
2021/11/19 05:54:21;;;;;;;18.52;7.93;;;14.80;99.90;;;15.01;88.62;102746.81;5051935;28;20076;-69
2021/11/19 05:56:51;;;;;;;16.08;7.15;;;14.80;99.90;;;14.91;88.96;102743.22;5051945;28;20406;-69
2021/11/19 05:59:20;;;;;;;13.05;7.85;;;14.70;99.90;;;14.91;89.40;102744.97;5051858;28;20052;-69
2021/11/19 06:02:12;;;;;;;15.15;7.78;;;14.60;99.90;;;14.84;89.35;102738.72;5052895;28;20115;-69
2021/11/19 06:04:59;;;;;;;16.25;6.97;;;14.60;99.90;;;14.87;89.76;102744.06;5052657;28;20044;-69
2021/11/19 06:07:34;;;;;;;16.33;7.18;;;14.60;99.90;;;14.95;89.42;102745.00;5051589;28;20131;-69
2021/11/19 06:10:05;;;;;;;15.95;7.72;;;14.60;99.90;;;15.08;89.08;102754.88;5068284;28;20069;-69
2021/11/19 06:12:39;;;;;;;14.45;7.20;;;14.70;99.90;;;14.87;89.22;102736.06;5052865;28;20128;-68
2021/11/19 06:15:14;;;;;;;20.67;7.82;;;14.70;99.90;;;14.06;88.65;102578.22;5052815;28;20044;-69
2021/11/19 06:17:50;;;;;;;15.10;7.25;;;14.80;99.90;;;14.93;89.38;102752.09;5051741;28;20045;-68
2021/11/19 06:20:26;;;;;;;15.18;7.30;;;14.70;99.90;;;14.94;89.54;102751.22;5051669;28;20569;-69
2021/11/19 06:23:07;;;;;;;19.83;7.35;;;14.70;99.90;;;14.94;89.50;102753.88;5051630;28;20049;-69
2021/11/19 06:25:39;;;;;;;17.50;6.88;;;14.70;99.90;;;15.01;89.19;102742.41;5051528;28;20048;-69
2021/11/19 06:28:10;;;;;;;16.57;6.43;;;14.70;99.90;;;14.66;89.22;102701.25;5067956;28;20053;-68
2021/11/19 06:30:40;;;;;;;19.40;6.75;;;14.70;99.90;;;14.99;89.05;102749.50;5051542;28;20045;-68
2021/11/19 06:33:10;;;;;;;21.27;7.13;;;14.80;99.90;;;15.08;88.94;102761.97;5051479;28;20445;-69
2021/11/19 06:35:39;;;;;;;18.95;6.75;;;14.80;99.90;;;15.08;88.68;102754.88;5051510;28;20049;-69
2021/11/19 06:38:09;;;;;;;17.70;6.30;;;14.90;99.90;;;15.01;88.62;102747.72;5067810;28;20128;-69
2021/11/19 06:40:47;;;;;;;13.98;6.00;;;14.80;99.90;;;15.14;88.07;102754.94;5068236;28;20045;-69
2021/11/19 06:43:21;;;;;;;20.73;6.32;;;14.90;99.90;;;15.13;88.38;102758.50;5052734;28;20041;-69
2021/11/19 06:46:25;;;;;;;17.63;6.60;;;14.90;99.90;;;15.17;88.14;102749.63;5030092;28;20069;-69
2021/11/19 06:49:14;;;;;;;15.98;6.32;;;14.90;99.90;;;15.02;87.75;102728.19;5051299;28;20110;-68
2021/11/19 06:51:43;;;;;;;13.95;6.10;;;15.00;99.90;;;15.07;87.65;102731.78;5052636;28;20091;-69
2021/11/19 06:54:30;;;;;;;12.32;6.15;;;15.00;99.90;;;15.29;87.21;102771.03;5052350;28;20075;-69
2021/11/19 06:57:25;;;;;;;12.77;6.03;;;15.00;99.90;;;15.24;86.96;102767.44;5069808;28;20045;-69
2021/11/19 06:59:54;;;;;;;20.13;6.10;;;15.00;99.90;;;15.14;86.91;102746.03;5071467;28;20478;-69
2021/11/19 07:02:23;;;;;;;12.07;5.60;;;15.00;99.90;;;15.32;86.86;102780.81;5071072;28;20045;-69
2021/11/19 07:04:53;;;;;;;15.75;6.15;;;15.00;99.90;;;15.37;86.59;102779.06;5071385;28;20140;-68
2021/11/19 07:07:21;;;;;;;15.77;6.53;;;15.10;99.90;;;15.35;86.35;102783.50;5070949;28;20045;-68
2021/11/19 07:09:50;;;;;;;19.15;6.28;;;15.00;99.90;;;15.20;86.75;102781.63;5055898;28;20355;-69
2021/11/19 07:12:21;;;;;;;14.05;6.57;;;15.00;99.90;;;15.10;86.94;102758.44;5054700;28;20095;-68
2021/11/19 07:14:59;;;;;;;13.82;6.15;;;14.90;99.90;;;15.25;87.09;102776.34;5071285;28;20053;-69
2021/11/19 07:17:27;;;;;;;14.00;5.40;;;15.00;99.90;;;15.23;86.94;102791.44;5055610;28;20052;-69
2021/11/19 07:19:57;;;;;;;14.70;6.57;;;14.90;99.90;;;15.24;86.84;102780.78;5071128;28;20040;-69
2021/11/19 07:22:26;;;;;;;19.17;6.30;;;15.00;99.90;;;15.34;86.46;102792.41;5054460;28;20107;-69
2021/11/19 07:25:04;;;;;;;15.43;5.50;;;15.00;99.90;;;15.38;86.10;102803.09;5054357;28;20310;-69
2021/11/19 07:27:32;;;;;;;18.65;6.07;;;15.00;99.90;;;15.34;86.10;102806.63;5055542;28;20041;-69
2021/11/19 07:30:01;;;;;;;15.63;5.85;;;15.10;99.90;;;15.36;86.08;102798.63;5054157;28;20041;-69
2021/11/19 07:32:48;;;;;;;13.52;5.78;;;15.10;99.90;;;15.34;85.82;102809.31;5055575;28;20115;-69
2021/11/19 07:35:34;;;;;;;14.18;5.88;;;15.10;99.90;;;14.99;86.06;102756.59;5055597;28;20122;-69
2021/11/19 07:38:23;;;;;;;16.25;6.28;;;15.00;99.90;;;15.20;86.46;102812.72;5055385;28;20049;-69
2021/11/19 07:41:10;;;;;;;16.17;6.45;;;14.90;99.90;;;15.21;86.40;102810.06;5070718;28;20552;-69
2021/11/19 07:43:57;;;;;;;11.88;6.03;;;14.90;99.90;;;15.18;86.30;102822.50;5055395;28;20059;-69
2021/11/19 07:46:42;;;;;;;12.23;6.13;;;14.90;99.90;;;15.30;86.36;102825.25;5053638;28;20382;-69
2021/11/19 07:49:11;;;;;;;12.85;6.72;;;14.90;99.90;;;15.27;86.32;102826.13;5070461;28;20062;-69
2021/11/19 07:51:47;;;;;;;15.57;7.35;;;14.90;99.90;;;15.33;86.31;102830.59;5070204;28;20095;-68
2021/11/19 07:54:17;;;;;;;14.38;7.10;;;15.00;99.90;;;15.09;86.20;102786.00;5054857;28;20052;-69
2021/11/19 07:56:46;;;;;;;15.23;6.53;;;15.00;99.90;;;15.27;86.36;102826.13;5053773;28;20123;-69
2021/11/19 07:59:19;;;;;;;19.30;7.50;;;15.00;99.90;;;15.28;86.61;102822.59;5053496;28;20044;-68
2021/11/19 08:01:48;;;;;;;12.25;6.65;;;15.00;99.90;;;15.34;86.52;102837.72;5053808;28;20513;-69
2021/11/19 08:04:18;;;;;;;19.27;6.85;;;15.00;99.90;;;14.94;86.32;102759.22;5053698;28;20483;-69
2021/11/19 08:06:51;;;;;;;19.45;6.45;;;15.00;99.90;;;15.25;86.84;102833.22;5070344;28;20391;-69
2021/11/19 08:09:49;;;;;;;14.10;6.63;;;15.00;99.90;;;15.37;86.85;102835.06;5052589;28;20462;-68
2021/11/19 08:12:44;;;;;;;11.63;6.25;;;15.00;99.90;;;15.27;87.08;102835.91;5054466;28;20430;-69
2021/11/19 08:15:22;;;;;;;21.75;6.22;;;15.00;99.90;;;15.24;86.87;102809.22;5070297;28;20048;-69
2021/11/19 08:17:53;;;;;;;15.23;6.63;;;15.00;99.90;;;15.38;86.66;102839.53;5069985;28;20068;-69
2021/11/19 08:20:37;;;;;;;18.17;7.15;;;15.10;99.90;;;15.43;86.49;102842.28;5053023;28;20569;-67
2021/11/19 08:23:09;;;;;;;16.00;7.28;;;15.10;99.90;;;15.47;86.68;102841.41;5054263;28;20041;-67
2021/11/19 08:25:39;;;;;;;21.35;7.20;;;15.10;99.90;;;15.45;86.32;102836.06;5054295;28;20045;-67
2021/11/19 08:28:29;;;;;;;14.95;6.03;;;15.10;99.90;;;15.51;86.23;102835.22;5054211;28;20041;-67
2021/11/19 08:30:58;;;;;;;;;;;15.20;99.90;;;15.41;86.23;102834.22;5070381;28;20437;-67
2021/11/19 08:33:27;;;;;;;15.23;5.65;;;15.20;99.90;;;15.30;86.36;102814.59;5054167;28;19920;-69
2021/11/19 08:35:57;;;;;;;18.00;6.63;;;15.10;99.90;;;13.69;86.33;102538.84;5054373;28;20459;-68
2021/11/19 08:38:28;;;;;;;18.10;6.25;;;15.10;99.90;;;15.48;86.15;102836.09;5053936;28;20102;-70
2021/11/19 08:40:57;;;;;;;13.02;6.07;;;15.10;99.90;;;15.39;86.08;102841.31;5054031;28;20044;-73
2021/11/19 08:43:34;;;;;;;15.50;6.68;;;15.20;99.90;;;15.39;85.84;102835.97;5054303;28;20087;-72
2021/11/19 08:46:08;;;;;;;14.85;6.55;;;15.10;99.90;;;15.22;85.66;102813.63;5053908;28;20053;-70
2021/11/19 08:48:38;;;;;;;14.32;6.95;;;15.10;99.90;;;15.33;85.31;102844.84;5054440;28;20049;-71
2021/11/19 08:51:10;;;;;;;12.45;5.88;;;15.00;99.90;;;15.04;85.23;102779.72;5054036;28;20045;-70
2021/11/19 08:53:40;;;;;;;13.35;6.45;;;15.10;99.90;;;15.64;85.73;102845.97;5053711;28;20052;-70
2021/11/19 08:56:09;;;;;;;13.20;6.43;;;15.30;99.90;;;16.02;85.32;102846.22;5054058;28;20051;-70
2021/11/19 08:58:41;;;;;;;13.05;6.45;;;15.70;99.90;;;15.69;83.59;102741.94;5053630;28;20099;-71
2021/11/19 09:01:13;;;;;;;19.30;6.07;;;16.00;99.90;;;16.64;82.36;102850.03;5053622;28;20051;-69
2021/11/19 09:03:42;;;;;;;15.43;6.40;;;16.30;99.90;;;16.87;80.50;102859.00;5053640;28;20080;-68
2021/11/19 09:06:13;;;;;;;12.57;5.57;;;16.50;99.90;;;16.96;78.86;102859.00;5053627;28;20041;-70
2021/11/19 09:08:45;;;;;;;14.77;5.90;;;16.70;99.90;;;16.96;78.50;102866.13;5053468;28;20060;-70
2021/11/19 09:11:19;;;;;;;11.75;5.32;;;16.70;99.90;;;17.03;78.06;102844.72;5053532;28;20072;-72
2021/11/19 09:13:50;;;;;;;11.93;5.65;;;16.90;99.90;;;17.19;76.84;102853.66;5053696;28;20045;-70
2021/11/19 09:16:23;;;;;;;9.43;5.35;;;17.00;99.90;;;16.97;76.23;102834.06;5069033;28;20163;-70
2021/11/19 09:19:10;;;;;;;9.85;4.65;;;17.00;99.90;;;17.34;76.01;102868.81;5052390;28;20514;-70
2021/11/19 09:21:46;;;;;;;12.57;5.25;;;17.10;99.90;;;17.70;76.09;102855.44;5053285;28;20045;-70
2021/11/19 09:24:20;;;;;;;12.52;4.95;;;17.30;99.90;;;17.74;74.02;102858.13;5053350;28;20048;-69
2021/11/19 09:26:54;;;;;;;12.63;5.38;;;17.50;99.90;;;17.88;73.71;102871.47;5053114;28;20053;-69
2021/11/19 09:29:29;;;;;;;9.77;4.72;;;17.60;99.90;;;17.90;74.04;102835.75;5053243;28;20044;-77
2021/11/19 09:31:58;;;;;;;8.57;4.88;;;17.80;99.90;;;18.07;73.09;102835.69;5053173;28;20406;-70
2021/11/19 09:34:29;;;;;;;12.90;5.18;;;18.00;99.90;;;18.40;72.43;102834.66;5053083;28;20124;-70
2021/11/19 09:36:58;;;;;;;10.15;5.00;;;18.30;99.90;;;18.72;71.04;102865.78;5052937;28;20607;-70
2021/11/19 09:39:28;;;;;;;9.40;4.35;;;18.50;99.90;;;19.07;70.72;102872.69;5052892;28;20041;-71
2021/11/19 09:42:04;;;;;;;7.35;4.30;;;18.80;99.90;;;19.35;69.59;102871.63;5053164;28;20048;-71
2021/11/19 09:45:15;;;;;;;13.57;4.55;;;19.10;99.90;;;19.22;67.91;102872.59;5052967;28;20399;-70
2021/11/19 09:48:04;;;;;;;9.95;4.60;;;19.10;99.90;;;19.03;67.69;102876.31;5053155;28;20521;-70
2021/11/19 09:51:17;;;;;;;9.63;4.10;;;18.90;99.90;;;18.83;67.47;102885.38;5053138;28;20437;-70
2021/11/19 09:54:28;;;;;;;8.88;4.50;;;18.60;99.90;;;18.54;68.70;102876.59;5048894;28;20106;-70
2021/11/19 09:57:36;;;;;;;9.68;4.78;;;18.40;99.90;;;18.58;69.78;102889.06;5052485;28;20548;-70
2021/11/19 10:00:23;;;;;;;9.88;4.68;;;18.30;99.90;;;18.32;70.03;102869.53;5051951;28;20148;-69
2021/11/19 10:03:24;;;;;;;10.95;4.88;;;18.10;99.90;;;18.42;70.18;102883.78;5053149;28;20045;-69
2021/11/19 10:06:01;;;;;;;12.07;4.82;;;18.10;99.90;;;17.72;71.21;102877.75;5052817;28;20090;-70
2021/11/19 10:08:59;;;;;;;11.98;4.88;;;17.70;99.90;;;17.61;72.00;102855.47;5052781;28;20045;-70
2021/11/19 10:11:38;;;;;;;11.95;4.88;;;17.40;99.90;;;18.16;72.16;102877.63;5052892;28;20048;-71
2021/11/19 10:14:35;;;;;;;9.80;4.72;;;17.80;99.90;;;18.48;70.81;102870.38;5068524;28;20059;-71
2021/11/19 10:17:21;;;;;;;8.60;4.88;;;18.20;99.90;;;16.75;69.92;102537.31;5051811;28;20049;-71
2021/11/19 10:19:54;;;;;;;8.82;4.95;;;18.40;99.90;;;18.80;69.00;102861.25;5052655;28;20037;-76
2021/11/19 10:22:29;;;;;;;12.68;4.90;;;18.70;99.90;;;19.12;67.67;102890.56;5052782;28;20071;-70
2021/11/19 10:25:10;;;;;;;10.93;4.65;;;18.90;99.90;;;18.97;68.00;102884.41;5052915;28;20045;-70
2021/11/19 10:27:41;;;;;;;;;;;18.70;99.90;;;18.65;68.13;102812.19;5053287;28;20045;-71
2021/11/19 10:30:35;;;;;;;10.40;4.45;;;18.80;99.90;;;19.21;67.03;102886.91;5052615;28;20199;-71
2021/11/19 10:33:12;;;;;;;9.48;4.80;;;19.00;99.90;;;19.21;66.86;102885.13;5054553;28;20045;-71
2021/11/19 10:35:55;;;;;;;9.00;4.68;;;19.00;99.90;;;19.05;67.36;102871.84;5056841;28;20040;-69
2021/11/19 10:39:12;;;;;;;13.95;4.93;;;18.90;99.90;;;19.13;67.12;102880.69;5056331;28;20048;-70